sensor_id;sensor_type;location;lat;lon;timestamp;P1;durP1;ratioP1;P2;durP2;ratioP2
44764;SDS011;30484;52.382;5.260;2023-12-04T00:00:19;50.90;;;19.40;;
44764;SDS011;30484;52.382;5.260;2023-12-04T00:02:48;51.55;;;19.80;;
44764;SDS011;30484;52.382;5.260;2023-12-04T00:05:16;53.25;;;20.08;;
44764;SDS011;30484;52.382;5.260;2023-12-04T00:07:45;55.78;;;19.25;;
44764;SDS011;30484;52.382;5.260;2023-12-04T00:10:13;55.83;;;19.98;;
44764;SDS011;30484;52.382;5.260;2023-12-04T00:12:43;52.65;;;20.17;;
44764;SDS011;30484;52.382;5.260;2023-12-04T00:15:11;55.33;;;20.38;;
44764;SDS011;30484;52.382;5.260;2023-12-04T00:17:39;51.45;;;20.08;;
44764;SDS011;30484;52.382;5.260;2023-12-04T00:20:08;56.05;;;20.25;;
44764;SDS011;30484;52.382;5.260;2023-12-04T00:22:37;52.90;;;20.10;;
44764;SDS011;30484;52.382;5.260;2023-12-04T00:25:06;52.90;;;20.10;;
44764;SDS011;30484;52.382;5.260;2023-12-04T00:27:35;61.42;;;21.13;;
44764;SDS011;30484;52.382;5.260;2023-12-04T00:30:05;52.58;;;21.17;;
44764;SDS011;30484;52.382;5.260;2023-12-04T00:32:34;54.90;;;19.95;;
44764;SDS011;30484;52.382;5.260;2023-12-04T00:35:02;57.17;;;21.42;;
44764;SDS011;30484;52.382;5.260;2023-12-04T00:37:31;59.70;;;21.75;;
44764;SDS011;30484;52.382;5.260;2023-12-04T00:40:05;53.13;;;21.42;;
44764;SDS011;30484;52.382;5.260;2023-12-04T00:42:34;57.03;;;20.65;;
44764;SDS011;30484;52.382;5.260;2023-12-04T00:45:04;47.28;;;20.15;;
44764;SDS011;30484;52.382;5.260;2023-12-04T00:47:34;49.08;;;19.35;;
44764;SDS011;30484;52.382;5.260;2023-12-04T00:50:02;53.45;;;19.88;;
44764;SDS011;30484;52.382;5.260;2023-12-04T00:52:31;48.63;;;19.63;;
44764;SDS011;30484;52.382;5.260;2023-12-04T00:55:00;57.85;;;19.38;;
44764;SDS011;30484;52.382;5.260;2023-12-04T00:57:28;52.75;;;20.27;;
44764;SDS011;30484;52.382;5.260;2023-12-04T00:59:56;51.35;;;19.48;;
44764;SDS011;30484;52.382;5.260;2023-12-04T01:02:26;53.15;;;19.73;;
44764;SDS011;30484;52.382;5.260;2023-12-04T01:04:54;51.55;;;20.55;;
44764;SDS011;30484;52.382;5.260;2023-12-04T01:07:22;53.03;;;19.42;;
44764;SDS011;30484;52.382;5.260;2023-12-04T01:09:51;47.03;;;19.25;;
44764;SDS011;30484;52.382;5.260;2023-12-04T01:12:19;54.10;;;20.30;;
44764;SDS011;30484;52.382;5.260;2023-12-04T01:14:47;53.60;;;20.25;;
44764;SDS011;30484;52.382;5.260;2023-12-04T01:17:15;49.95;;;18.83;;
44764;SDS011;30484;52.382;5.260;2023-12-04T01:19:45;49.95;;;18.98;;
44764;SDS011;30484;52.382;5.260;2023-12-04T01:22:13;48.55;;;19.70;;
44764;SDS011;30484;52.382;5.260;2023-12-04T01:24:41;50.45;;;19.02;;
44764;SDS011;30484;52.382;5.260;2023-12-04T01:27:09;53.50;;;20.42;;
44764;SDS011;30484;52.382;5.260;2023-12-04T01:29:38;55.58;;;20.30;;
44764;SDS011;30484;52.382;5.260;2023-12-04T01:32:06;49.25;;;19.58;;
44764;SDS011;30484;52.382;5.260;2023-12-04T01:34:34;52.88;;;19.45;;
44764;SDS011;30484;52.382;5.260;2023-12-04T01:37:03;53.75;;;20.40;;
44764;SDS011;30484;52.382;5.260;2023-12-04T01:39:32;51.08;;;20.77;;
44764;SDS011;30484;52.382;5.260;2023-12-04T01:42:00;52.92;;;20.65;;
44764;SDS011;30484;52.382;5.260;2023-12-04T01:44:28;49.20;;;19.23;;
44764;SDS011;30484;52.382;5.260;2023-12-04T01:46:56;55.78;;;20.92;;
44764;SDS011;30484;52.382;5.260;2023-12-04T01:49:24;54.97;;;21.13;;
44764;SDS011;30484;52.382;5.260;2023-12-04T01:51:53;49.95;;;20.08;;
44764;SDS011;30484;52.382;5.260;2023-12-04T01:54:23;49.13;;;20.55;;
44764;SDS011;30484;52.382;5.260;2023-12-04T01:56:52;46.15;;;19.15;;
44764;SDS011;30484;52.382;5.260;2023-12-04T01:59:20;57.63;;;20.73;;
44764;SDS011;30484;52.382;5.260;2023-12-04T02:01:49;54.67;;;21.33;;
44764;SDS011;30484;52.382;5.260;2023-12-04T02:04:17;55.60;;;22.05;;
44764;SDS011;30484;52.382;5.260;2023-12-04T02:06:46;56.50;;;21.13;;
44764;SDS011;30484;52.382;5.260;2023-12-04T02:09:14;54.83;;;21.27;;
44764;SDS011;30484;52.382;5.260;2023-12-04T02:11:45;60.17;;;22.20;;
44764;SDS011;30484;52.382;5.260;2023-12-04T02:14:13;63.05;;;22.17;;
44764;SDS011;30484;52.382;5.260;2023-12-04T02:16:41;62.20;;;23.65;;
44764;SDS011;30484;52.382;5.260;2023-12-04T02:19:11;57.05;;;22.63;;
44764;SDS011;30484;52.382;5.260;2023-12-04T02:21:40;65.80;;;22.60;;
44764;SDS011;30484;52.382;5.260;2023-12-04T02:24:10;61.10;;;22.63;;
44764;SDS011;30484;52.382;5.260;2023-12-04T02:26:39;57.47;;;21.42;;
44764;SDS011;30484;52.382;5.260;2023-12-04T02:29:16;53.65;;;21.85;;
44764;SDS011;30484;52.382;5.260;2023-12-04T02:31:53;59.58;;;22.23;;
44764;SDS011;30484;52.382;5.260;2023-12-04T02:34:23;61.05;;;23.38;;
44764;SDS011;30484;52.382;5.260;2023-12-04T02:36:52;60.50;;;22.70;;
44764;SDS011;30484;52.382;5.260;2023-12-04T02:39:23;61.05;;;23.35;;
44764;SDS011;30484;52.382;5.260;2023-12-04T02:41:51;63.72;;;24.00;;
44764;SDS011;30484;52.382;5.260;2023-12-04T02:44:19;57.90;;;23.52;;
44764;SDS011;30484;52.382;5.260;2023-12-04T02:46:47;63.33;;;23.95;;
44764;SDS011;30484;52.382;5.260;2023-12-04T02:49:15;56.63;;;22.98;;
44764;SDS011;30484;52.382;5.260;2023-12-04T02:51:44;60.45;;;23.23;;
44764;SDS011;30484;52.382;5.260;2023-12-04T02:54:12;56.85;;;22.00;;
44764;SDS011;30484;52.382;5.260;2023-12-04T02:56:42;54.00;;;22.05;;
44764;SDS011;30484;52.382;5.260;2023-12-04T02:59:10;54.22;;;22.02;;
44764;SDS011;30484;52.382;5.260;2023-12-04T03:01:38;63.33;;;23.05;;
44764;SDS011;30484;52.382;5.260;2023-12-04T03:04:06;56.35;;;22.35;;
44764;SDS011;30484;52.382;5.260;2023-12-04T03:06:34;53.47;;;20.80;;
44764;SDS011;30484;52.382;5.260;2023-12-04T03:09:02;58.08;;;22.80;;
44764;SDS011;30484;52.382;5.260;2023-12-04T03:11:31;56.38;;;21.90;;
44764;SDS011;30484;52.382;5.260;2023-12-04T03:14:00;57.83;;;23.35;;
44764;SDS011;30484;52.382;5.260;2023-12-04T03:16:29;60.75;;;21.92;;
44764;SDS011;30484;52.382;5.260;2023-12-04T03:18:57;51.97;;;21.40;;
44764;SDS011;30484;52.382;5.260;2023-12-04T03:21:25;57.55;;;22.55;;
44764;SDS011;30484;52.382;5.260;2023-12-04T03:23:55;51.90;;;21.27;;
44764;SDS011;30484;52.382;5.260;2023-12-04T03:26:23;53.20;;;21.40;;
44764;SDS011;30484;52.382;5.260;2023-12-04T03:28:51;51.97;;;21.77;;
44764;SDS011;30484;52.382;5.260;2023-12-04T03:31:21;54.70;;;21.85;;
44764;SDS011;30484;52.382;5.260;2023-12-04T03:33:50;48.80;;;20.50;;
44764;SDS011;30484;52.382;5.260;2023-12-04T03:36:21;57.03;;;21.45;;
44764;SDS011;30484;52.382;5.260;2023-12-04T03:38:49;45.92;;;19.80;;
44764;SDS011;30484;52.382;5.260;2023-12-04T03:41:18;54.95;;;21.58;;
44764;SDS011;30484;52.382;5.260;2023-12-04T03:43:48;54.90;;;22.13;;
44764;SDS011;30484;52.382;5.260;2023-12-04T03:46:16;48.30;;;19.33;;
44764;SDS011;30484;52.382;5.260;2023-12-04T03:48:48;48.20;;;20.13;;
44764;SDS011;30484;52.382;5.260;2023-12-04T03:51:17;51.65;;;19.35;;
44764;SDS011;30484;52.382;5.260;2023-12-04T03:53:45;53.45;;;19.90;;
44764;SDS011;30484;52.382;5.260;2023-12-04T03:56:13;48.90;;;20.33;;
44764;SDS011;30484;52.382;5.260;2023-12-04T03:58:42;46.65;;;19.38;;
44764;SDS011;30484;52.382;5.260;2023-12-04T04:01:10;46.42;;;19.25;;
44764;SDS011;30484;52.382;5.260;2023-12-04T04:03:38;46.83;;;18.95;;
44764;SDS011;30484;52.382;5.260;2023-12-04T04:06:08;51.13;;;19.20;;
44764;SDS011;30484;52.382;5.260;2023-12-04T04:08:37;48.28;;;19.08;;
44764;SDS011;30484;52.382;5.260;2023-12-04T04:11:05;39.83;;;17.27;;
44764;SDS011;30484;52.382;5.260;2023-12-04T04:13:34;42.20;;;19.17;;
44764;SDS011;30484;52.382;5.260;2023-12-04T04:16:02;43.58;;;18.40;;
44764;SDS011;30484;52.382;5.260;2023-12-04T04:18:32;46.75;;;19.30;;
44764;SDS011;30484;52.382;5.260;2023-12-04T04:21:00;48.58;;;19.15;;
44764;SDS011;30484;52.382;5.260;2023-12-04T04:23:30;43.22;;;18.40;;
44764;SDS011;30484;52.382;5.260;2023-12-04T04:25:58;40.92;;;17.52;;
44764;SDS011;30484;52.382;5.260;2023-12-04T04:28:26;43.70;;;18.33;;
44764;SDS011;30484;52.382;5.260;2023-12-04T04:30:55;46.05;;;18.23;;
44764;SDS011;30484;52.382;5.260;2023-12-04T04:33:23;38.03;;;16.55;;
44764;SDS011;30484;52.382;5.260;2023-12-04T04:35:51;41.95;;;16.67;;
44764;SDS011;30484;52.382;5.260;2023-12-04T04:38:19;37.40;;;15.85;;
44764;SDS011;30484;52.382;5.260;2023-12-04T04:40:49;37.90;;;16.13;;
44764;SDS011;30484;52.382;5.260;2023-12-04T04:43:19;37.90;;;16.83;;
44764;SDS011;30484;52.382;5.260;2023-12-04T04:45:47;38.83;;;17.02;;
44764;SDS011;30484;52.382;5.260;2023-12-04T04:48:16;41.42;;;16.63;;
44764;SDS011;30484;52.382;5.260;2023-12-04T04:50:44;40.42;;;16.98;;
44764;SDS011;30484;52.382;5.260;2023-12-04T04:53:12;39.58;;;16.63;;
44764;SDS011;30484;52.382;5.260;2023-12-04T04:55:40;35.85;;;15.18;;
44764;SDS011;30484;52.382;5.260;2023-12-04T04:58:15;38.97;;;16.00;;
44764;SDS011;30484;52.382;5.260;2023-12-04T05:00:44;38.28;;;16.27;;
44764;SDS011;30484;52.382;5.260;2023-12-04T05:03:13;39.97;;;17.20;;
44764;SDS011;30484;52.382;5.260;2023-12-04T05:05:42;35.20;;;16.45;;
44764;SDS011;30484;52.382;5.260;2023-12-04T05:08:10;35.40;;;15.52;;
44764;SDS011;30484;52.382;5.260;2023-12-04T05:10:38;33.20;;;15.27;;
44764;SDS011;30484;52.382;5.260;2023-12-04T05:13:07;34.42;;;15.15;;
44764;SDS011;30484;52.382;5.260;2023-12-04T05:15:36;38.42;;;16.38;;
44764;SDS011;30484;52.382;5.260;2023-12-04T05:18:05;35.63;;;15.30;;
44764;SDS011;30484;52.382;5.260;2023-12-04T05:20:33;36.05;;;14.65;;
44764;SDS011;30484;52.382;5.260;2023-12-04T05:23:01;37.72;;;15.43;;
44764;SDS011;30484;52.382;5.260;2023-12-04T05:25:29;32.47;;;15.68;;
44764;SDS011;30484;52.382;5.260;2023-12-04T05:28:06;35.55;;;15.55;;
44764;SDS011;30484;52.382;5.260;2023-12-04T05:30:36;34.85;;;16.13;;
44764;SDS011;30484;52.382;5.260;2023-12-04T05:33:04;30.20;;;14.43;;
44764;SDS011;30484;52.382;5.260;2023-12-04T05:35:33;34.03;;;15.13;;
44764;SDS011;30484;52.382;5.260;2023-12-04T05:38:02;31.98;;;15.27;;
44764;SDS011;30484;52.382;5.260;2023-12-04T05:40:31;33.53;;;15.45;;
44764;SDS011;30484;52.382;5.260;2023-12-04T05:43:00;34.38;;;14.70;;
44764;SDS011;30484;52.382;5.260;2023-12-04T05:45:28;33.38;;;15.90;;
44764;SDS011;30484;52.382;5.260;2023-12-04T05:47:58;33.70;;;15.30;;
44764;SDS011;30484;52.382;5.260;2023-12-04T05:50:26;31.67;;;14.95;;
44764;SDS011;30484;52.382;5.260;2023-12-04T05:52:54;31.45;;;14.13;;
44764;SDS011;30484;52.382;5.260;2023-12-04T05:55:22;31.42;;;14.02;;
44764;SDS011;30484;52.382;5.260;2023-12-04T05:57:51;31.08;;;14.48;;
44764;SDS011;30484;52.382;5.260;2023-12-04T06:00:19;38.47;;;14.93;;
44764;SDS011;30484;52.382;5.260;2023-12-04T06:02:52;29.88;;;14.48;;
44764;SDS011;30484;52.382;5.260;2023-12-04T06:05:22;31.83;;;14.15;;
44764;SDS011;30484;52.382;5.260;2023-12-04T06:07:50;29.73;;;13.65;;
44764;SDS011;30484;52.382;5.260;2023-12-04T06:10:18;32.58;;;14.32;;
44764;SDS011;30484;52.382;5.260;2023-12-04T06:12:46;26.63;;;13.25;;
44764;SDS011;30484;52.382;5.260;2023-12-04T06:15:15;32.65;;;14.75;;
44764;SDS011;30484;52.382;5.260;2023-12-04T06:17:43;28.50;;;13.43;;
44764;SDS011;30484;52.382;5.260;2023-12-04T06:20:11;29.73;;;12.88;;
44764;SDS011;30484;52.382;5.260;2023-12-04T06:22:41;30.77;;;13.82;;
44764;SDS011;30484;52.382;5.260;2023-12-04T06:25:11;29.27;;;13.68;;
44764;SDS011;30484;52.382;5.260;2023-12-04T06:27:41;33.95;;;13.40;;
44764;SDS011;30484;52.382;5.260;2023-12-04T06:30:10;30.90;;;14.13;;
44764;SDS011;30484;52.382;5.260;2023-12-04T06:32:39;26.88;;;12.73;;
44764;SDS011;30484;52.382;5.260;2023-12-04T06:35:08;28.92;;;13.85;;
44764;SDS011;30484;52.382;5.260;2023-12-04T06:37:42;28.25;;;12.80;;
44764;SDS011;30484;52.382;5.260;2023-12-04T06:40:12;27.20;;;13.13;;
44764;SDS011;30484;52.382;5.260;2023-12-04T06:42:42;27.15;;;13.27;;
44764;SDS011;30484;52.382;5.260;2023-12-04T06:45:11;28.55;;;13.75;;
44764;SDS011;30484;52.382;5.260;2023-12-04T06:47:40;25.63;;;12.80;;
44764;SDS011;30484;52.382;5.260;2023-12-04T06:50:10;26.58;;;14.02;;
44764;SDS011;30484;52.382;5.260;2023-12-04T06:52:38;30.65;;;12.88;;
44764;SDS011;30484;52.382;5.260;2023-12-04T06:55:08;27.75;;;13.98;;
44764;SDS011;30484;52.382;5.260;2023-12-04T06:57:38;25.80;;;12.40;;
44764;SDS011;30484;52.382;5.260;2023-12-04T07:00:07;27.33;;;12.50;;
44764;SDS011;30484;52.382;5.260;2023-12-04T07:02:47;28.17;;;12.75;;
44764;SDS011;30484;52.382;5.260;2023-12-04T07:05:16;25.10;;;12.30;;
44764;SDS011;30484;52.382;5.260;2023-12-04T07:07:45;29.05;;;12.50;;
44764;SDS011;30484;52.382;5.260;2023-12-04T07:10:15;27.15;;;13.50;;
44764;SDS011;30484;52.382;5.260;2023-12-04T07:12:44;26.02;;;12.45;;
44764;SDS011;30484;52.382;5.260;2023-12-04T07:15:12;27.45;;;12.20;;
44764;SDS011;30484;52.382;5.260;2023-12-04T07:17:41;26.48;;;13.10;;
44764;SDS011;30484;52.382;5.260;2023-12-04T07:20:09;28.98;;;12.15;;
44764;SDS011;30484;52.382;5.260;2023-12-04T07:22:39;25.70;;;12.57;;
44764;SDS011;30484;52.382;5.260;2023-12-04T07:25:07;26.55;;;12.73;;
44764;SDS011;30484;52.382;5.260;2023-12-04T07:27:38;24.33;;;12.00;;
44764;SDS011;30484;52.382;5.260;2023-12-04T07:30:06;26.13;;;11.45;;
44764;SDS011;30484;52.382;5.260;2023-12-04T07:32:35;22.58;;;11.05;;
44764;SDS011;30484;52.382;5.260;2023-12-04T07:35:04;26.85;;;12.95;;
44764;SDS011;30484;52.382;5.260;2023-12-04T07:37:34;23.00;;;11.43;;
44764;SDS011;30484;52.382;5.260;2023-12-04T07:40:02;21.38;;;10.75;;
44764;SDS011;30484;52.382;5.260;2023-12-04T07:42:34;23.23;;;11.60;;
44764;SDS011;30484;52.382;5.260;2023-12-04T07:45:04;21.85;;;11.30;;
44764;SDS011;30484;52.382;5.260;2023-12-04T07:47:34;25.40;;;12.02;;
44764;SDS011;30484;52.382;5.260;2023-12-04T07:50:02;24.83;;;12.25;;
44764;SDS011;30484;52.382;5.260;2023-12-04T07:52:31;21.40;;;10.80;;
44764;SDS011;30484;52.382;5.260;2023-12-04T07:54:59;22.50;;;11.43;;
44764;SDS011;30484;52.382;5.260;2023-12-04T07:57:27;23.33;;;10.75;;
44764;SDS011;30484;52.382;5.260;2023-12-04T07:59:57;21.83;;;10.52;;
44764;SDS011;30484;52.382;5.260;2023-12-04T08:02:26;22.75;;;11.30;;
44764;SDS011;30484;52.382;5.260;2023-12-04T08:04:55;22.83;;;10.95;;
44764;SDS011;30484;52.382;5.260;2023-12-04T08:07:23;20.25;;;10.55;;
44764;SDS011;30484;52.382;5.260;2023-12-04T08:09:52;22.48;;;11.05;;
44764;SDS011;30484;52.382;5.260;2023-12-04T08:12:20;21.48;;;10.65;;
44764;SDS011;30484;52.382;5.260;2023-12-04T08:14:49;20.85;;;10.68;;
44764;SDS011;30484;52.382;5.260;2023-12-04T08:17:17;22.65;;;10.23;;
44764;SDS011;30484;52.382;5.260;2023-12-04T08:19:46;24.92;;;10.15;;
44764;SDS011;30484;52.382;5.260;2023-12-04T08:22:18;20.27;;;10.65;;
44764;SDS011;30484;52.382;5.260;2023-12-04T08:24:47;21.38;;;9.93;;
44764;SDS011;30484;52.382;5.260;2023-12-04T08:27:15;19.77;;;9.95;;
44764;SDS011;30484;52.382;5.260;2023-12-04T08:29:43;21.02;;;10.07;;
44764;SDS011;30484;52.382;5.260;2023-12-04T08:32:12;18.83;;;10.23;;
44764;SDS011;30484;52.382;5.260;2023-12-04T08:34:40;20.75;;;10.43;;
44764;SDS011;30484;52.382;5.260;2023-12-04T08:37:10;19.85;;;9.82;;
44764;SDS011;30484;52.382;5.260;2023-12-04T08:39:38;20.90;;;9.95;;
44764;SDS011;30484;52.382;5.260;2023-12-04T08:42:06;21.08;;;10.02;;
44764;SDS011;30484;52.382;5.260;2023-12-04T08:44:43;18.65;;;9.75;;
44764;SDS011;30484;52.382;5.260;2023-12-04T08:47:12;20.33;;;9.95;;
44764;SDS011;30484;52.382;5.260;2023-12-04T08:49:40;19.63;;;10.02;;
44764;SDS011;30484;52.382;5.260;2023-12-04T08:52:16;17.63;;;9.30;;
44764;SDS011;30484;52.382;5.260;2023-12-04T08:54:44;16.50;;;8.82;;
44764;SDS011;30484;52.382;5.260;2023-12-04T08:57:12;21.60;;;10.15;;
44764;SDS011;30484;52.382;5.260;2023-12-04T08:59:41;17.52;;;9.32;;
44764;SDS011;30484;52.382;5.260;2023-12-04T09:02:09;20.42;;;10.45;;
44764;SDS011;30484;52.382;5.260;2023-12-04T09:04:40;19.45;;;9.18;;
44764;SDS011;30484;52.382;5.260;2023-12-04T09:07:09;22.13;;;9.02;;
44764;SDS011;30484;52.382;5.260;2023-12-04T09:09:59;18.67;;;9.93;;
44764;SDS011;30484;52.382;5.260;2023-12-04T09:12:36;17.70;;;9.50;;
44764;SDS011;30484;52.382;5.260;2023-12-04T09:15:04;17.95;;;9.07;;
44764;SDS011;30484;52.382;5.260;2023-12-04T09:17:35;17.60;;;8.98;;
44764;SDS011;30484;52.382;5.260;2023-12-04T09:20:06;19.92;;;9.65;;
44764;SDS011;30484;52.382;5.260;2023-12-04T09:22:35;20.95;;;9.48;;
44764;SDS011;30484;52.382;5.260;2023-12-04T09:25:19;18.33;;;9.45;;
44764;SDS011;30484;52.382;5.260;2023-12-04T09:27:48;18.50;;;9.65;;
44764;SDS011;30484;52.382;5.260;2023-12-04T09:30:16;17.20;;;9.20;;
44764;SDS011;30484;52.382;5.260;2023-12-04T09:32:45;20.08;;;8.40;;
44764;SDS011;30484;52.382;5.260;2023-12-04T09:35:13;18.88;;;8.15;;
44764;SDS011;30484;52.382;5.260;2023-12-04T09:37:42;17.80;;;8.60;;
44764;SDS011;30484;52.382;5.260;2023-12-04T09:40:12;18.60;;;8.38;;
44764;SDS011;30484;52.382;5.260;2023-12-04T09:42:41;17.48;;;8.20;;
44764;SDS011;30484;52.382;5.260;2023-12-04T09:45:10;16.48;;;8.52;;
44764;SDS011;30484;52.382;5.260;2023-12-04T09:47:40;15.85;;;7.63;;
44764;SDS011;30484;52.382;5.260;2023-12-04T09:50:10;15.30;;;8.68;;
44764;SDS011;30484;52.382;5.260;2023-12-04T09:52:40;14.98;;;7.55;;
44764;SDS011;30484;52.382;5.260;2023-12-04T09:55:08;15.70;;;7.93;;
44764;SDS011;30484;52.382;5.260;2023-12-04T09:57:37;15.68;;;8.18;;
44764;SDS011;30484;52.382;5.260;2023-12-04T10:00:08;15.02;;;7.68;;
44764;SDS011;30484;52.382;5.260;2023-12-04T10:02:40;12.85;;;7.55;;
44764;SDS011;30484;52.382;5.260;2023-12-04T10:05:09;16.80;;;7.80;;
44764;SDS011;30484;52.382;5.260;2023-12-04T10:07:38;16.45;;;8.13;;
44764;SDS011;30484;52.382;5.260;2023-12-04T10:10:06;15.45;;;7.38;;
44764;SDS011;30484;52.382;5.260;2023-12-04T10:12:36;14.38;;;6.90;;
44764;SDS011;30484;52.382;5.260;2023-12-04T10:15:05;14.23;;;7.28;;
44764;SDS011;30484;52.382;5.260;2023-12-04T10:17:37;14.02;;;7.50;;
44764;SDS011;30484;52.382;5.260;2023-12-04T10:20:08;13.80;;;7.50;;
44764;SDS011;30484;52.382;5.260;2023-12-04T10:22:39;14.13;;;7.32;;
44764;SDS011;30484;52.382;5.260;2023-12-04T10:25:19;14.02;;;7.53;;
44764;SDS011;30484;52.382;5.260;2023-12-04T10:27:50;13.82;;;7.40;;
44764;SDS011;30484;52.382;5.260;2023-12-04T10:30:23;14.15;;;7.43;;
44764;SDS011;30484;52.382;5.260;2023-12-04T10:32:54;15.00;;;7.65;;
44764;SDS011;30484;52.382;5.260;2023-12-04T10:35:28;15.82;;;7.68;;
44764;SDS011;30484;52.382;5.260;2023-12-04T10:37:57;14.85;;;7.22;;
44764;SDS011;30484;52.382;5.260;2023-12-04T10:40:27;14.23;;;6.75;;
44764;SDS011;30484;52.382;5.260;2023-12-04T10:43:09;13.45;;;6.60;;
44764;SDS011;30484;52.382;5.260;2023-12-04T10:45:41;12.48;;;7.00;;
44764;SDS011;30484;52.382;5.260;2023-12-04T10:48:12;12.30;;;6.00;;
44764;SDS011;30484;52.382;5.260;2023-12-04T10:50:43;13.98;;;7.30;;
44764;SDS011;30484;52.382;5.260;2023-12-04T10:53:14;12.48;;;7.00;;
44764;SDS011;30484;52.382;5.260;2023-12-04T10:55:44;12.60;;;6.55;;
44764;SDS011;30484;52.382;5.260;2023-12-04T10:58:16;12.60;;;6.70;;
44764;SDS011;30484;52.382;5.260;2023-12-04T11:00:48;12.60;;;6.70;;
44764;SDS011;30484;52.382;5.260;2023-12-04T11:03:18;13.27;;;6.68;;
44764;SDS011;30484;52.382;5.260;2023-12-04T11:05:53;13.27;;;6.53;;
44764;SDS011;30484;52.382;5.260;2023-12-04T11:08:28;13.90;;;6.43;;
44764;SDS011;30484;52.382;5.260;2023-12-04T11:10:58;13.45;;;6.25;;
44764;SDS011;30484;52.382;5.260;2023-12-04T11:13:30;13.15;;;6.88;;
44764;SDS011;30484;52.382;5.260;2023-12-04T11:16:05;12.38;;;6.80;;
44764;SDS011;30484;52.382;5.260;2023-12-04T11:18:43;12.88;;;7.35;;
44764;SDS011;30484;52.382;5.260;2023-12-04T11:21:16;10.63;;;6.05;;
44764;SDS011;30484;52.382;5.260;2023-12-04T11:23:47;15.80;;;7.13;;
44764;SDS011;30484;52.382;5.260;2023-12-04T11:26:17;12.15;;;6.35;;
44764;SDS011;30484;52.382;5.260;2023-12-04T11:28:46;15.00;;;7.10;;
44764;SDS011;30484;52.382;5.260;2023-12-04T11:31:16;16.80;;;6.50;;
44764;SDS011;30484;52.382;5.260;2023-12-04T11:33:45;13.30;;;6.95;;
44764;SDS011;30484;52.382;5.260;2023-12-04T11:36:14;15.52;;;7.07;;
44764;SDS011;30484;52.382;5.260;2023-12-04T11:38:44;16.30;;;6.95;;
44764;SDS011;30484;52.382;5.260;2023-12-04T11:41:14;21.85;;;6.63;;
44764;SDS011;30484;52.382;5.260;2023-12-04T11:43:50;19.58;;;6.85;;
44764;SDS011;30484;52.382;5.260;2023-12-04T11:46:24;17.40;;;6.97;;
44764;SDS011;30484;52.382;5.260;2023-12-04T11:48:54;16.60;;;7.90;;
44764;SDS011;30484;52.382;5.260;2023-12-04T11:54:18;12.30;;;6.78;;
44764;SDS011;30484;52.382;5.260;2023-12-04T11:56:56;14.73;;;7.45;;
44764;SDS011;30484;52.382;5.260;2023-12-04T11:59:27;17.73;;;7.10;;
44764;SDS011;30484;52.382;5.260;2023-12-04T12:01:57;18.60;;;8.02;;
44764;SDS011;30484;52.382;5.260;2023-12-04T12:04:27;15.55;;;8.55;;
44764;SDS011;30484;52.382;5.260;2023-12-04T12:06:57;13.55;;;7.90;;
44764;SDS011;30484;52.382;5.260;2023-12-04T12:09:28;14.52;;;8.05;;
44764;SDS011;30484;52.382;5.260;2023-12-04T12:11:58;16.20;;;8.43;;
44764;SDS011;30484;52.382;5.260;2023-12-04T12:14:28;15.90;;;8.70;;
44764;SDS011;30484;52.382;5.260;2023-12-04T12:16:59;16.98;;;9.48;;
44764;SDS011;30484;52.382;5.260;2023-12-04T12:19:28;15.65;;;8.98;;
44764;SDS011;30484;52.382;5.260;2023-12-04T12:21:56;15.10;;;8.75;;
44764;SDS011;30484;52.382;5.260;2023-12-04T12:24:25;16.92;;;8.32;;
44764;SDS011;30484;52.382;5.260;2023-12-04T12:26:53;19.50;;;9.07;;
44764;SDS011;30484;52.382;5.260;2023-12-04T12:29:22;16.13;;;8.73;;
44764;SDS011;30484;52.382;5.260;2023-12-04T12:31:52;23.10;;;8.95;;
44764;SDS011;30484;52.382;5.260;2023-12-04T12:34:22;15.48;;;8.82;;
44764;SDS011;30484;52.382;5.260;2023-12-04T12:36:50;17.40;;;9.13;;
44764;SDS011;30484;52.382;5.260;2023-12-04T12:39:19;18.25;;;8.90;;
44764;SDS011;30484;52.382;5.260;2023-12-04T12:41:47;22.23;;;9.85;;
44764;SDS011;30484;52.382;5.260;2023-12-04T12:44:16;18.50;;;9.43;;
44764;SDS011;30484;52.382;5.260;2023-12-04T12:46:46;19.60;;;9.80;;
44764;SDS011;30484;52.382;5.260;2023-12-04T12:49:16;18.45;;;9.27;;
44764;SDS011;30484;52.382;5.260;2023-12-04T12:52:04;21.83;;;9.73;;
44764;SDS011;30484;52.382;5.260;2023-12-04T12:54:36;18.25;;;9.50;;
44764;SDS011;30484;52.382;5.260;2023-12-04T12:57:05;20.45;;;9.50;;
44764;SDS011;30484;52.382;5.260;2023-12-04T12:59:34;19.13;;;9.05;;
44764;SDS011;30484;52.382;5.260;2023-12-04T13:02:03;19.58;;;9.55;;
44764;SDS011;30484;52.382;5.260;2023-12-04T13:04:35;18.15;;;9.32;;
44764;SDS011;30484;52.382;5.260;2023-12-04T13:07:06;17.88;;;9.48;;
44764;SDS011;30484;52.382;5.260;2023-12-04T13:09:35;23.48;;;10.27;;
44764;SDS011;30484;52.382;5.260;2023-12-04T13:12:04;18.67;;;10.07;;
44764;SDS011;30484;52.382;5.260;2023-12-04T13:14:34;17.63;;;9.73;;
44764;SDS011;30484;52.382;5.260;2023-12-04T13:17:04;17.80;;;9.55;;
44764;SDS011;30484;52.382;5.260;2023-12-04T13:19:33;23.85;;;9.98;;
44764;SDS011;30484;52.382;5.260;2023-12-04T13:22:02;19.25;;;9.85;;
44764;SDS011;30484;52.382;5.260;2023-12-04T13:24:33;19.65;;;9.50;;
44764;SDS011;30484;52.382;5.260;2023-12-04T13:27:01;18.83;;;9.57;;
44764;SDS011;30484;52.382;5.260;2023-12-04T13:29:29;19.33;;;10.00;;
44764;SDS011;30484;52.382;5.260;2023-12-04T13:31:58;18.88;;;9.55;;
44764;SDS011;30484;52.382;5.260;2023-12-04T13:34:27;17.65;;;9.52;;
44764;SDS011;30484;52.382;5.260;2023-12-04T13:36:55;18.65;;;9.77;;
44764;SDS011;30484;52.382;5.260;2023-12-04T13:39:24;18.75;;;9.90;;
44764;SDS011;30484;52.382;5.260;2023-12-04T13:42:06;18.13;;;9.75;;
44764;SDS011;30484;52.382;5.260;2023-12-04T13:44:53;19.67;;;9.60;;
44764;SDS011;30484;52.382;5.260;2023-12-04T13:47:21;18.08;;;9.63;;
44764;SDS011;30484;52.382;5.260;2023-12-04T13:49:50;17.45;;;9.20;;
44764;SDS011;30484;52.382;5.260;2023-12-04T13:52:18;16.85;;;8.95;;
44764;SDS011;30484;52.382;5.260;2023-12-04T13:54:49;15.23;;;8.93;;
44764;SDS011;30484;52.382;5.260;2023-12-04T13:57:22;17.45;;;9.35;;
44764;SDS011;30484;52.382;5.260;2023-12-04T13:59:54;18.48;;;10.48;;
44764;SDS011;30484;52.382;5.260;2023-12-04T14:02:23;21.65;;;10.52;;
44764;SDS011;30484;52.382;5.260;2023-12-04T14:04:52;17.77;;;9.23;;
44764;SDS011;30484;52.382;5.260;2023-12-04T14:07:22;14.98;;;8.63;;
44764;SDS011;30484;52.382;5.260;2023-12-04T14:09:52;20.98;;;9.90;;
44764;SDS011;30484;52.382;5.260;2023-12-04T14:12:22;18.30;;;9.95;;
44764;SDS011;30484;52.382;5.260;2023-12-04T14:14:51;17.73;;;9.70;;
44764;SDS011;30484;52.382;5.260;2023-12-04T14:17:23;17.70;;;9.05;;
44764;SDS011;30484;52.382;5.260;2023-12-04T14:19:52;17.27;;;8.85;;
44764;SDS011;30484;52.382;5.260;2023-12-04T14:22:20;16.52;;;8.88;;
44764;SDS011;30484;52.382;5.260;2023-12-04T14:24:49;19.42;;;8.98;;
44764;SDS011;30484;52.382;5.260;2023-12-04T14:27:18;20.00;;;9.32;;
44764;SDS011;30484;52.382;5.260;2023-12-04T14:29:47;17.50;;;8.98;;
44764;SDS011;30484;52.382;5.260;2023-12-04T14:32:16;20.17;;;9.35;;
44764;SDS011;30484;52.382;5.260;2023-12-04T14:34:46;20.63;;;9.02;;
44764;SDS011;30484;52.382;5.260;2023-12-04T14:37:15;17.83;;;9.43;;
44764;SDS011;30484;52.382;5.260;2023-12-04T14:39:43;15.65;;;8.73;;
44764;SDS011;30484;52.382;5.260;2023-12-04T14:42:11;18.38;;;9.55;;